sensor_id;sensor_type;location;lat;lon;timestamp;P1;durP1;ratioP1;P2;durP2;ratioP2
40541;SDS011;49288;52.194;5.676;2023-04-15T00:01:26;18.95;;;9.35;;
40541;SDS011;49288;52.194;5.676;2023-04-15T00:06:29;24.95;;;9.27;;
40541;SDS011;49288;52.194;5.676;2023-04-15T00:11:32;12.50;;;7.47;;
40541;SDS011;49288;52.194;5.676;2023-04-15T00:16:37;17.90;;;8.05;;
40541;SDS011;49288;52.194;5.676;2023-04-15T00:21:40;18.48;;;7.93;;
40541;SDS011;49288;52.194;5.676;2023-04-15T00:27:02;15.15;;;8.20;;
40541;SDS011;49288;52.194;5.676;2023-04-15T00:32:06;21.00;;;7.40;;
40541;SDS011;49288;52.194;5.676;2023-04-15T00:37:08;17.15;;;8.43;;
40541;SDS011;49288;52.194;5.676;2023-04-15T00:42:30;18.27;;;8.38;;
40541;SDS011;49288;52.194;5.676;2023-04-15T00:47:33;18.65;;;8.35;;
40541;SDS011;49288;52.194;5.676;2023-04-15T00:52:37;17.13;;;7.57;;
40541;SDS011;49288;52.194;5.676;2023-04-15T01:02:44;17.10;;;8.63;;
40541;SDS011;49288;52.194;5.676;2023-04-15T01:07:49;21.48;;;8.43;;
40541;SDS011;49288;52.194;5.676;2023-04-15T01:12:52;14.88;;;7.85;;
40541;SDS011;49288;52.194;5.676;2023-04-15T01:18:00;15.65;;;8.35;;
40541;SDS011;49288;52.194;5.676;2023-04-15T01:28:07;15.82;;;7.65;;
40541;SDS011;49288;52.194;5.676;2023-04-15T01:33:11;15.77;;;8.05;;
40541;SDS011;49288;52.194;5.676;2023-04-15T01:38:14;14.65;;;8.02;;
40541;SDS011;49288;52.194;5.676;2023-04-15T01:43:37;14.73;;;8.40;;
40541;SDS011;49288;52.194;5.676;2023-04-15T01:48:40;17.60;;;8.10;;
40541;SDS011;49288;52.194;5.676;2023-04-15T01:53:43;15.65;;;7.90;;
40541;SDS011;49288;52.194;5.676;2023-04-15T01:58:46;12.85;;;7.25;;
40541;SDS011;49288;52.194;5.676;2023-04-15T02:03:48;18.73;;;8.68;;
40541;SDS011;49288;52.194;5.676;2023-04-15T02:08:51;16.48;;;7.70;;
40541;SDS011;49288;52.194;5.676;2023-04-15T02:13:54;19.85;;;9.82;;
40541;SDS011;49288;52.194;5.676;2023-04-15T02:18:59;18.17;;;8.18;;
40541;SDS011;49288;52.194;5.676;2023-04-15T02:24:04;19.42;;;8.38;;
40541;SDS011;49288;52.194;5.676;2023-04-15T02:29:07;18.42;;;9.27;;
40541;SDS011;49288;52.194;5.676;2023-04-15T02:34:10;24.75;;;9.55;;
40541;SDS011;49288;52.194;5.676;2023-04-15T02:39:19;21.58;;;11.05;;
40541;SDS011;49288;52.194;5.676;2023-04-15T02:44:21;26.98;;;11.13;;
40541;SDS011;49288;52.194;5.676;2023-04-15T02:49:30;29.83;;;10.80;;
40541;SDS011;49288;52.194;5.676;2023-04-15T02:54:34;23.10;;;10.88;;
40541;SDS011;49288;52.194;5.676;2023-04-15T02:59:37;25.48;;;10.25;;
40541;SDS011;49288;52.194;5.676;2023-04-15T03:04:40;23.60;;;10.88;;
40541;SDS011;49288;52.194;5.676;2023-04-15T03:09:43;27.77;;;10.93;;
40541;SDS011;49288;52.194;5.676;2023-04-15T03:14:51;18.20;;;8.93;;
40541;SDS011;49288;52.194;5.676;2023-04-15T03:20:00;25.80;;;11.32;;
40541;SDS011;49288;52.194;5.676;2023-04-15T03:25:06;29.17;;;12.20;;
40541;SDS011;49288;52.194;5.676;2023-04-15T03:30:11;25.25;;;12.95;;
40541;SDS011;49288;52.194;5.676;2023-04-15T03:35:33;26.33;;;12.10;;
40541;SDS011;49288;52.194;5.676;2023-04-15T03:40:37;32.78;;;13.65;;
40541;SDS011;49288;52.194;5.676;2023-04-15T03:50:43;26.92;;;11.90;;
40541;SDS011;49288;52.194;5.676;2023-04-15T03:55:47;25.65;;;11.50;;
40541;SDS011;49288;52.194;5.676;2023-04-15T04:00:50;27.40;;;12.43;;
40541;SDS011;49288;52.194;5.676;2023-04-15T04:05:58;29.25;;;14.68;;
40541;SDS011;49288;52.194;5.676;2023-04-15T04:11:01;22.38;;;11.68;;
40541;SDS011;49288;52.194;5.676;2023-04-15T04:16:03;28.17;;;13.00;;
40541;SDS011;49288;52.194;5.676;2023-04-15T04:21:06;26.10;;;12.75;;
40541;SDS011;49288;52.194;5.676;2023-04-15T04:26:28;25.05;;;12.77;;
40541;SDS011;49288;52.194;5.676;2023-04-15T04:31:30;29.77;;;13.82;;
40541;SDS011;49288;52.194;5.676;2023-04-15T04:36:33;30.10;;;13.43;;
40541;SDS011;49288;52.194;5.676;2023-04-15T04:41:36;28.55;;;13.82;;
40541;SDS011;49288;52.194;5.676;2023-04-15T04:46:39;28.70;;;13.68;;
40541;SDS011;49288;52.194;5.676;2023-04-15T04:51:42;26.13;;;12.38;;
40541;SDS011;49288;52.194;5.676;2023-04-15T04:56:45;27.25;;;14.63;;
40541;SDS011;49288;52.194;5.676;2023-04-15T05:01:48;36.38;;;16.83;;
40541;SDS011;49288;52.194;5.676;2023-04-15T05:06:53;36.95;;;16.30;;
40541;SDS011;49288;52.194;5.676;2023-04-15T05:11:55;31.20;;;14.73;;
40541;SDS011;49288;52.194;5.676;2023-04-15T05:16:58;36.20;;;17.10;;
40541;SDS011;49288;52.194;5.676;2023-04-15T05:22:01;44.22;;;19.33;;
40541;SDS011;49288;52.194;5.676;2023-04-15T05:27:03;47.15;;;19.75;;
40541;SDS011;49288;52.194;5.676;2023-04-15T05:32:06;50.67;;;19.80;;
40541;SDS011;49288;52.194;5.676;2023-04-15T05:37:09;47.00;;;22.50;;
40541;SDS011;49288;52.194;5.676;2023-04-15T05:42:11;41.28;;;20.25;;
40541;SDS011;49288;52.194;5.676;2023-04-15T05:47:14;40.95;;;19.15;;
40541;SDS011;49288;52.194;5.676;2023-04-15T05:52:18;36.92;;;16.85;;
40541;SDS011;49288;52.194;5.676;2023-04-15T05:57:20;36.17;;;17.05;;
40541;SDS011;49288;52.194;5.676;2023-04-15T06:02:23;34.00;;;16.95;;
40541;SDS011;49288;52.194;5.676;2023-04-15T06:07:25;35.65;;;16.40;;
40541;SDS011;49288;52.194;5.676;2023-04-15T06:12:28;30.00;;;17.23;;
40541;SDS011;49288;52.194;5.676;2023-04-15T06:17:32;29.90;;;15.97;;
40541;SDS011;49288;52.194;5.676;2023-04-15T06:22:35;26.25;;;15.32;;
40541;SDS011;49288;52.194;5.676;2023-04-15T06:27:39;29.75;;;14.65;;
40541;SDS011;49288;52.194;5.676;2023-04-15T06:32:42;26.70;;;14.57;;
40541;SDS011;49288;52.194;5.676;2023-04-15T06:37:45;32.20;;;16.83;;
40541;SDS011;49288;52.194;5.676;2023-04-15T06:42:49;30.23;;;14.52;;
40541;SDS011;49288;52.194;5.676;2023-04-15T06:47:52;32.10;;;14.07;;
40541;SDS011;49288;52.194;5.676;2023-04-15T06:52:55;33.10;;;15.88;;
40541;SDS011;49288;52.194;5.676;2023-04-15T06:58:16;31.58;;;15.15;;
40541;SDS011;49288;52.194;5.676;2023-04-15T07:03:38;31.85;;;15.63;;
40541;SDS011;49288;52.194;5.676;2023-04-15T07:08:41;25.25;;;13.43;;
40541;SDS011;49288;52.194;5.676;2023-04-15T07:13:43;18.92;;;11.43;;
40541;SDS011;49288;52.194;5.676;2023-04-15T07:18:47;18.85;;;10.68;;
40541;SDS011;49288;52.194;5.676;2023-04-15T07:23:49;22.58;;;10.40;;
40541;SDS011;49288;52.194;5.676;2023-04-15T07:28:52;20.05;;;10.73;;
40541;SDS011;49288;52.194;5.676;2023-04-15T07:33:59;23.23;;;12.15;;
40541;SDS011;49288;52.194;5.676;2023-04-15T07:39:06;21.67;;;11.07;;
40541;SDS011;49288;52.194;5.676;2023-04-15T07:44:09;18.95;;;10.25;;
40541;SDS011;49288;52.194;5.676;2023-04-15T07:49:12;23.85;;;11.15;;
40541;SDS011;49288;52.194;5.676;2023-04-15T07:54:15;25.23;;;12.32;;
40541;SDS011;49288;52.194;5.676;2023-04-15T07:59:22;22.13;;;11.80;;
40541;SDS011;49288;52.194;5.676;2023-04-15T08:04:28;19.50;;;11.30;;
40541;SDS011;49288;52.194;5.676;2023-04-15T08:09:32;19.60;;;10.98;;
40541;SDS011;49288;52.194;5.676;2023-04-15T08:14:37;25.23;;;10.20;;
40541;SDS011;49288;52.194;5.676;2023-04-15T08:19:40;18.92;;;10.02;;
40541;SDS011;49288;52.194;5.676;2023-04-15T08:24:43;16.63;;;9.68;;
40541;SDS011;49288;52.194;5.676;2023-04-15T08:29:47;20.42;;;9.77;;
40541;SDS011;49288;52.194;5.676;2023-04-15T08:34:51;17.02;;;8.07;;
40541;SDS011;49288;52.194;5.676;2023-04-15T08:39:54;17.60;;;7.88;;
40541;SDS011;49288;52.194;5.676;2023-04-15T08:44:58;16.85;;;7.47;;
40541;SDS011;49288;52.194;5.676;2023-04-15T08:50:02;12.55;;;6.32;;
40541;SDS011;49288;52.194;5.676;2023-04-15T08:55:05;14.60;;;7.13;;
40541;SDS011;49288;52.194;5.676;2023-04-15T09:00:09;9.98;;;6.13;;
40541;SDS011;49288;52.194;5.676;2023-04-15T09:05:15;10.00;;;4.97;;
40541;SDS011;49288;52.194;5.676;2023-04-15T09:10:18;7.72;;;4.30;;
40541;SDS011;49288;52.194;5.676;2023-04-15T09:15:21;6.80;;;4.22;;
40541;SDS011;49288;52.194;5.676;2023-04-15T09:20:26;9.95;;;5.50;;
40541;SDS011;49288;52.194;5.676;2023-04-15T09:25:29;9.38;;;5.38;;
40541;SDS011;49288;52.194;5.676;2023-04-15T09:30:35;7.93;;;4.65;;
40541;SDS011;49288;52.194;5.676;2023-04-15T09:35:40;10.77;;;4.97;;
40541;SDS011;49288;52.194;5.676;2023-04-15T09:40:44;11.07;;;5.10;;
40541;SDS011;49288;52.194;5.676;2023-04-15T09:45:51;9.15;;;5.20;;
40541;SDS011;49288;52.194;5.676;2023-04-15T09:50:59;12.73;;;6.10;;
40541;SDS011;49288;52.194;5.676;2023-04-15T09:56:08;10.45;;;5.65;;
40541;SDS011;49288;52.194;5.676;2023-04-15T10:01:11;9.53;;;4.60;;
40541;SDS011;49288;52.194;5.676;2023-04-15T10:06:15;9.02;;;4.75;;
40541;SDS011;49288;52.194;5.676;2023-04-15T10:11:18;9.65;;;5.35;;
40541;SDS011;49288;52.194;5.676;2023-04-15T10:16:22;8.60;;;5.20;;
40541;SDS011;49288;52.194;5.676;2023-04-15T10:21:29;8.98;;;4.38;;
40541;SDS011;49288;52.194;5.676;2023-04-15T10:26:31;8.70;;;5.40;;
40541;SDS011;49288;52.194;5.676;2023-04-15T10:31:34;10.02;;;5.13;;
40541;SDS011;49288;52.194;5.676;2023-04-15T10:36:42;14.57;;;5.45;;
40541;SDS011;49288;52.194;5.676;2023-04-15T10:41:44;10.35;;;5.30;;
40541;SDS011;49288;52.194;5.676;2023-04-15T10:46:47;7.97;;;5.30;;
40541;SDS011;49288;52.194;5.676;2023-04-15T10:51:56;8.75;;;4.88;;
40541;SDS011;49288;52.194;5.676;2023-04-15T11:02:06;5.72;;;3.80;;
40541;SDS011;49288;52.194;5.676;2023-04-15T11:07:09;8.35;;;4.50;;
40541;SDS011;49288;52.194;5.676;2023-04-15T11:12:12;7.72;;;4.63;;
40541;SDS011;49288;52.194;5.676;2023-04-15T11:17:25;6.72;;;3.92;;
40541;SDS011;49288;52.194;5.676;2023-04-15T11:22:32;7.93;;;4.07;;
40541;SDS011;49288;52.194;5.676;2023-04-15T11:27:35;5.88;;;3.80;;
40541;SDS011;49288;52.194;5.676;2023-04-15T11:32:40;9.68;;;3.45;;
40541;SDS011;49288;52.194;5.676;2023-04-15T11:37:44;5.88;;;3.42;;
40541;SDS011;49288;52.194;5.676;2023-04-15T11:43:02;5.38;;;3.17;;
40541;SDS011;49288;52.194;5.676;2023-04-15T11:53:12;8.73;;;3.85;;
40541;SDS011;49288;52.194;5.676;2023-04-15T11:58:17;8.50;;;3.73;;
40541;SDS011;49288;52.194;5.676;2023-04-15T12:03:46;8.18;;;3.40;;
40541;SDS011;49288;52.194;5.676;2023-04-15T12:14:02;5.63;;;2.92;;
40541;SDS011;49288;52.194;5.676;2023-04-15T12:19:18;8.77;;;3.20;;
40541;SDS011;49288;52.194;5.676;2023-04-15T12:24:25;6.47;;;3.03;;
40541;SDS011;49288;52.194;5.676;2023-04-15T12:29:29;4.80;;;2.40;;
40541;SDS011;49288;52.194;5.676;2023-04-15T12:34:37;7.22;;;2.80;;
40541;SDS011;49288;52.194;5.676;2023-04-15T12:39:42;4.75;;;2.50;;
40541;SDS011;49288;52.194;5.676;2023-04-15T12:44:46;5.05;;;2.40;;
40541;SDS011;49288;52.194;5.676;2023-04-15T12:49:50;3.20;;;1.87;;
40541;SDS011;49288;52.194;5.676;2023-04-15T12:54:53;3.10;;;2.03;;
40541;SDS011;49288;52.194;5.676;2023-04-15T12:59:57;5.78;;;2.20;;
40541;SDS011;49288;52.194;5.676;2023-04-15T13:05:01;3.67;;;1.90;;
40541;SDS011;49288;52.194;5.676;2023-04-15T13:15:08;4.80;;;1.98;;
40541;SDS011;49288;52.194;5.676;2023-04-15T13:20:13;3.95;;;1.80;;
40541;SDS011;49288;52.194;5.676;2023-04-15T13:25:17;2.60;;;1.63;;
40541;SDS011;49288;52.194;5.676;2023-04-15T13:30:20;2.83;;;1.90;;
40541;SDS011;49288;52.194;5.676;2023-04-15T13:35:23;4.70;;;2.20;;
40541;SDS011;49288;52.194;5.676;2023-04-15T13:40:26;7.60;;;3.03;;
40541;SDS011;49288;52.194;5.676;2023-04-15T13:45:29;4.43;;;2.28;;
40541;SDS011;49288;52.194;5.676;2023-04-15T13:50:32;3.20;;;1.98;;
40541;SDS011;49288;52.194;5.676;2023-04-15T13:55:35;6.53;;;2.28;;
40541;SDS011;49288;52.194;5.676;2023-04-15T14:00:39;5.10;;;2.53;;
40541;SDS011;49288;52.194;5.676;2023-04-15T14:05:42;4.88;;;2.47;;
40541;SDS011;49288;52.194;5.676;2023-04-15T14:15:52;6.15;;;2.53;;
40541;SDS011;49288;52.194;5.676;2023-04-15T14:20:55;6.72;;;2.78;;
40541;SDS011;49288;52.194;5.676;2023-04-15T14:25:58;36.72;;;2.67;;
40541;SDS011;49288;52.194;5.676;2023-04-15T14:31:00;5.53;;;2.38;;
40541;SDS011;49288;52.194;5.676;2023-04-15T14:36:03;7.15;;;2.90;;
40541;SDS011;49288;52.194;5.676;2023-04-15T14:41:07;9.93;;;3.28;;
40541;SDS011;49288;52.194;5.676;2023-04-15T14:46:30;11.70;;;2.75;;
40541;SDS011;49288;52.194;5.676;2023-04-15T14:51:34;10.48;;;3.30;;
40541;SDS011;49288;52.194;5.676;2023-04-15T14:56:37;10.38;;;3.45;;
40541;SDS011;49288;52.194;5.676;2023-04-15T15:01:43;13.90;;;3.92;;
40541;SDS011;49288;52.194;5.676;2023-04-15T15:06:46;7.10;;;2.80;;
40541;SDS011;49288;52.194;5.676;2023-04-15T15:11:50;9.15;;;2.83;;
40541;SDS011;49288;52.194;5.676;2023-04-15T15:16:54;14.25;;;3.15;;
40541;SDS011;49288;52.194;5.676;2023-04-15T15:21:57;10.57;;;3.13;;
40541;SDS011;49288;52.194;5.676;2023-04-15T15:27:01;6.68;;;2.13;;
40541;SDS011;49288;52.194;5.676;2023-04-15T15:32:04;15.47;;;3.60;;
40541;SDS011;49288;52.194;5.676;2023-04-15T15:37:09;13.93;;;2.80;;
40541;SDS011;49288;52.194;5.676;2023-04-15T15:42:11;11.38;;;2.38;;
40541;SDS011;49288;52.194;5.676;2023-04-15T15:47:15;8.63;;;2.22;;
40541;SDS011;49288;52.194;5.676;2023-04-15T15:52:18;8.63;;;2.50;;
40541;SDS011;49288;52.194;5.676;2023-04-15T15:57:21;10.43;;;2.70;;
40541;SDS011;49288;52.194;5.676;2023-04-15T16:02:25;16.50;;;2.93;;
40541;SDS011;49288;52.194;5.676;2023-04-15T16:07:47;10.48;;;2.33;;
40541;SDS011;49288;52.194;5.676;2023-04-15T16:12:50;8.38;;;2.20;;
40541;SDS011;49288;52.194;5.676;2023-04-15T16:17:54;6.75;;;2.00;;
40541;SDS011;49288;52.194;5.676;2023-04-15T16:22:58;11.30;;;2.60;;
40541;SDS011;49288;52.194;5.676;2023-04-15T16:28:01;14.25;;;2.60;;
40541;SDS011;49288;52.194;5.676;2023-04-15T16:33:39;9.77;;;2.70;;
40541;SDS011;49288;52.194;5.676;2023-04-15T16:38:42;12.77;;;2.47;;
40541;SDS011;49288;52.194;5.676;2023-04-15T16:43:51;11.32;;;2.05;;
40541;SDS011;49288;52.194;5.676;2023-04-15T16:48:56;14.20;;;2.42;;
40541;SDS011;49288;52.194;5.676;2023-04-15T16:54:00;13.15;;;2.97;;
40541;SDS011;49288;52.194;5.676;2023-04-15T16:59:03;11.00;;;2.67;;
40541;SDS011;49288;52.194;5.676;2023-04-15T17:04:06;17.17;;;2.80;;
40541;SDS011;49288;52.194;5.676;2023-04-15T17:09:09;11.70;;;3.20;;
40541;SDS011;49288;52.194;5.676;2023-04-15T17:14:13;12.85;;;2.95;;
40541;SDS011;49288;52.194;5.676;2023-04-15T17:19:17;13.65;;;2.40;;
40541;SDS011;49288;52.194;5.676;2023-04-15T17:24:20;13.93;;;3.13;;
40541;SDS011;49288;52.194;5.676;2023-04-15T17:29:24;22.88;;;3.40;;
40541;SDS011;49288;52.194;5.676;2023-04-15T17:34:27;17.20;;;2.47;;
40541;SDS011;49288;52.194;5.676;2023-04-15T17:39:50;24.60;;;3.22;;
40541;SDS011;49288;52.194;5.676;2023-04-15T17:45:11;9.48;;;2.70;;
40541;SDS011;49288;52.194;5.676;2023-04-15T17:50:14;12.18;;;2.58;;
40541;SDS011;49288;52.194;5.676;2023-04-15T17:55:18;13.48;;;3.00;;
40541;SDS011;49288;52.194;5.676;2023-04-15T18:00:23;14.23;;;2.70;;
40541;SDS011;49288;52.194;5.676;2023-04-15T18:05:26;8.30;;;2.28;;
40541;SDS011;49288;52.194;5.676;2023-04-15T18:10:29;13.98;;;2.78;;
40541;SDS011;49288;52.194;5.676;2023-04-15T18:15:34;8.55;;;2.35;;
40541;SDS011;49288;52.194;5.676;2023-04-15T18:20:37;11.85;;;2.90;;
40541;SDS011;49288;52.194;5.676;2023-04-15T18:25:41;11.35;;;2.30;;
40541;SDS011;49288;52.194;5.676;2023-04-15T18:30:46;10.45;;;2.35;;
40541;SDS011;49288;52.194;5.676;2023-04-15T18:35:55;17.13;;;2.80;;
40541;SDS011;49288;52.194;5.676;2023-04-15T18:40:59;15.65;;;2.97;;
40541;SDS011;49288;52.194;5.676;2023-04-15T18:46:02;15.68;;;2.88;;
40541;SDS011;49288;52.194;5.676;2023-04-15T18:51:12;15.27;;;3.25;;
40541;SDS011;49288;52.194;5.676;2023-04-15T18:56:14;11.27;;;2.45;;
40541;SDS011;49288;52.194;5.676;2023-04-15T19:01:17;10.93;;;3.10;;
40541;SDS011;49288;52.194;5.676;2023-04-15T19:06:20;12.68;;;2.83;;
40541;SDS011;49288;52.194;5.676;2023-04-15T19:11:42;12.73;;;3.13;;
40541;SDS011;49288;52.194;5.676;2023-04-15T19:16:45;10.02;;;2.80;;
40541;SDS011;49288;52.194;5.676;2023-04-15T19:21:48;14.55;;;3.85;;
40541;SDS011;49288;52.194;5.676;2023-04-15T19:26:51;13.30;;;3.17;;
40541;SDS011;49288;52.194;5.676;2023-04-15T19:31:56;23.67;;;3.57;;
40541;SDS011;49288;52.194;5.676;2023-04-15T19:42:03;16.88;;;3.47;;
40541;SDS011;49288;52.194;5.676;2023-04-15T19:47:10;15.23;;;2.90;;
40541;SDS011;49288;52.194;5.676;2023-04-15T19:52:14;17.77;;;3.20;;
40541;SDS011;49288;52.194;5.676;2023-04-15T19:57:17;17.60;;;3.83;;
40541;SDS011;49288;52.194;5.676;2023-04-15T20:02:20;12.65;;;3.22;;
40541;SDS011;49288;52.194;5.676;2023-04-15T20:07:25;15.32;;;3.20;;
40541;SDS011;49288;52.194;5.676;2023-04-15T20:12:29;14.13;;;3.50;;
40541;SDS011;49288;52.194;5.676;2023-04-15T20:17:52;14.05;;;3.60;;
40541;SDS011;49288;52.194;5.676;2023-04-15T20:22:54;9.65;;;3.10;;
40541;SDS011;49288;52.194;5.676;2023-04-15T20:28:16;18.08;;;4.30;;
40541;SDS011;49288;52.194;5.676;2023-04-15T20:38:23;16.38;;;4.03;;
40541;SDS011;49288;52.194;5.676;2023-04-15T20:43:25;13.23;;;3.40;;
40541;SDS011;49288;52.194;5.676;2023-04-15T20:48:28;15.82;;;4.53;;
40541;SDS011;49288;52.194;5.676;2023-04-15T20:53:32;8.30;;;3.20;;
40541;SDS011;49288;52.194;5.676;2023-04-15T20:58:36;10.87;;;3.40;;
40541;SDS011;49288;52.194;5.676;2023-04-15T21:03:40;9.53;;;3.93;;
40541;SDS011;49288;52.194;5.676;2023-04-15T21:08:43;10.98;;;3.80;;
40541;SDS011;49288;52.194;5.676;2023-04-15T21:13:46;15.85;;;4.63;;
40541;SDS011;49288;52.194;5.676;2023-04-15T21:18:49;10.63;;;3.45;;
40541;SDS011;49288;52.194;5.676;2023-04-15T21:23:52;16.85;;;4.55;;
40541;SDS011;49288;52.194;5.676;2023-04-15T21:28:57;16.85;;;5.20;;
40541;SDS011;49288;52.194;5.676;2023-04-15T21:34:00;11.23;;;4.60;;
40541;SDS011;49288;52.194;5.676;2023-04-15T21:39:02;10.00;;;4.25;;
40541;SDS011;49288;52.194;5.676;2023-04-15T21:44:06;10.32;;;4.57;;
40541;SDS011;49288;52.194;5.676;2023-04-15T21:49:08;13.50;;;4.63;;
40541;SDS011;49288;52.194;5.676;2023-04-15T21:54:14;12.05;;;5.30;;
40541;SDS011;49288;52.194;5.676;2023-04-15T21:59:17;16.60;;;5.53;;
40541;SDS011;49288;52.194;5.676;2023-04-15T22:04:28;23.17;;;5.93;;
40541;SDS011;49288;52.194;5.676;2023-04-15T22:09:32;16.42;;;4.97;;
40541;SDS011;49288;52.194;5.676;2023-04-15T22:14:35;14.57;;;5.40;;
40541;SDS011;49288;52.194;5.676;2023-04-15T22:19:38;17.10;;;5.18;;
40541;SDS011;49288;52.194;5.676;2023-04-15T22:24:41;20.92;;;6.75;;
40541;SDS011;49288;52.194;5.676;2023-04-15T22:29:47;17.15;;;5.60;;
40541;SDS011;49288;52.194;5.676;2023-04-15T22:34:49;26.25;;;7.78;;
40541;SDS011;49288;52.194;5.676;2023-04-15T22:39:53;22.87;;;7.03;;
40541;SDS011;49288;52.194;5.676;2023-04-15T22:44:57;22.50;;;7.60;;
40541;SDS011;49288;52.194;5.676;2023-04-15T22:50:01;19.70;;;6.03;;
40541;SDS011;49288;52.194;5.676;2023-04-15T22:55:04;31.98;;;7.25;;
40541;SDS011;49288;52.194;5.676;2023-04-15T23:00:09;26.38;;;9.07;;
40541;SDS011;49288;52.194;5.676;2023-04-15T23:05:12;23.67;;;7.72;;
40541;SDS011;49288;52.194;5.676;2023-04-15T23:10:15;26.13;;;8.15;;
40541;SDS011;49288;52.194;5.676;2023-04-15T23:15:18;32.67;;;9.43;;
40541;SDS011;49288;52.194;5.676;2023-04-15T23:20:21;26.80;;;8.93;;
40541;SDS011;49288;52.194;5.676;2023-04-15T23:25:24;25.20;;;8.48;;
40541;SDS011;49288;52.194;5.676;2023-04-15T23:30:27;30.05;;;9.05;;
40541;SDS011;49288;52.194;5.676;2023-04-15T23:35:30;23.95;;;8.55;;
40541;SDS011;49288;52.194;5.676;2023-04-15T23:40:33;30.25;;;10.70;;
40541;SDS011;49288;52.194;5.676;2023-04-15T23:45:36;33.97;;;11.13;;
40541;SDS011;49288;52.194;5.676;2023-04-15T23:50:39;39.67;;;10.95;;
40541;SDS011;49288;52.194;5.676;2023-04-15T23:55:41;38.50;;;11.57;;
